Time;durP1;ratioP1;P1;durP2;ratioP2;P2;SDS_P1;SDS_P2;PMS_P1;PMS_P2;Temp;Humidity;BMP_temperature;BMP_pressure;BME280_temperature;BME280_humidity;BME280_pressure;Samples;Min_cycle;Max_cycle;Signal;HPM_P1;HPM_P2
2021/10/02 00:36:05;;;;;;;7.30;5.83;;;13.00;99.90;;;;;;5113334;28;20611;-91
2021/10/02 00:41:37;;;;;;;5.33;4.43;;;13.10;99.90;;;;;;5112307;28;20638;-92
2021/10/02 00:46:53;;;;;;;6.37;5.87;;;12.90;99.90;;;;;;5112397;28;20668;-91
2021/10/02 00:49:20;;;;;;;6.10;5.50;;;12.90;99.90;;;;;;5113244;28;20630;-92
2021/10/02 00:51:47;;;;;;;5.57;5.07;;;12.80;99.90;;;;;;5112386;28;20683;-92
2021/10/02 00:54:16;;;;;;;5.00;4.60;;;12.70;99.90;;;;;;5106118;28;20642;-91
2021/10/02 00:56:43;;;;;;;5.90;5.40;;;12.70;99.90;;;;;;5111207;28;20599;-91
2021/10/02 00:59:11;;;;;;;5.70;5.20;;;12.70;99.90;;;;;;5112528;27;20650;-91
2021/10/02 01:01:47;;;;;;;6.70;5.50;;;12.60;99.90;;;;;;5113217;27;20716;-92
2021/10/02 01:04:23;;;;;;;6.63;6.07;;;12.60;99.90;;;;;;5108079;27;20631;-91
2021/10/02 01:07:00;;;;;;;6.10;5.30;;;12.60;99.90;;;;;;5112636;28;20619;-92
2021/10/02 01:09:52;;;;;;;6.00;5.50;;;12.50;99.90;;;;;;5110170;28;20637;-92
2021/10/02 01:12:30;;;;;;;6.00;5.50;;;12.50;99.90;;;;;;5110000;27;20673;-91
2021/10/02 01:15:02;;;;;;;6.20;5.70;;;12.50;99.90;;;;;;5102609;28;20611;-91
2021/10/02 01:17:37;;;;;;;6.00;5.50;;;12.50;99.90;;;;;;5110270;28;20635;-92
2021/10/02 01:20:09;;;;;;;6.00;5.60;;;12.50;99.90;;;;;;5115017;27;20801;-91
2021/10/02 01:22:58;;;;;;;5.33;4.93;;;12.50;99.90;;;;;;5113229;28;20630;-91
2021/10/02 01:25:33;;;;;;;6.30;5.70;;;12.60;99.90;;;;;;5114743;27;20655;-91
2021/10/02 01:28:07;;;;;;;7.23;6.73;;;12.60;99.90;;;;;;5111586;27;20630;-91
2021/10/02 01:33:29;;;;;;;5.70;5.30;;;12.60;99.90;;;;;;5111503;27;20660;-91
2021/10/02 01:36:16;;;;;;;6.00;5.50;;;12.60;99.90;;;;;;5110732;28;20619;-91
2021/10/02 01:47:13;;;;;;;6.93;6.33;;;12.40;99.90;;;;;;5110150;28;20600;-90
2021/10/02 01:49:45;;;;;;;7.43;6.93;;;12.30;99.90;;;;;;5119337;27;20660;-91
2021/10/02 01:52:15;;;;;;;7.87;7.13;;;12.30;99.90;;;;;;5109565;27;20643;-91
2021/10/02 01:54:43;;;;;;;7.47;6.93;;;12.30;99.90;;;;;;5109918;27;20690;-91
2021/10/02 01:57:11;;;;;;;9.07;8.17;;;12.30;99.90;;;;;;5112357;28;20630;-92
2021/10/02 01:59:41;;;;;;;8.67;7.93;;;12.30;99.90;;;;;;5118825;28;20603;-92
2021/10/02 02:02:10;;;;;;;8.47;7.70;;;12.30;99.90;;;;;;5109172;28;20646;-91
2021/10/02 02:04:41;;;;;;;8.53;7.90;;;12.30;99.90;;;;;;5110130;28;20630;-91
2021/10/02 02:07:10;;;;;;;8.73;6.97;;;12.30;99.90;;;;;;5102020;28;20621;-91
2021/10/02 02:09:39;;;;;;;8.77;7.97;;;12.30;99.90;;;;;;5108714;28;20634;-91
2021/10/02 02:12:10;;;;;;;8.83;8.10;;;12.30;99.90;;;;;;5109689;28;20647;-91
2021/10/02 02:14:40;;;;;;;9.73;8.87;;;12.40;99.90;;;;;;5108573;28;20624;-90
2021/10/02 02:17:09;;;;;;;8.97;8.10;;;12.40;99.90;;;;;;5109710;27;20631;-92
2021/10/02 02:19:36;;;;;;;9.03;8.13;;;12.40;99.90;;;;;;5112020;28;21213;-93
2021/10/02 02:22:04;;;;;;;8.10;7.30;;;12.40;99.90;;;;;;5110399;28;20631;-93
2021/10/02 02:24:33;;;;;;;7.57;6.97;;;12.30;99.90;;;;;;5107139;28;20627;-93
2021/10/02 02:27:00;;;;;;;7.17;6.60;;;12.30;99.90;;;;;;5109830;28;20659;-92
2021/10/02 02:29:29;;;;;;;8.13;7.30;;;12.20;99.90;;;;;;5114048;28;20630;-92
2021/10/02 02:31:58;;;;;;;8.67;7.90;;;12.20;99.90;;;;;;5107642;28;20658;-93
2021/10/02 02:34:25;;;;;;;8.60;7.80;;;12.30;99.90;;;;;;5113438;28;20637;-92
2021/10/02 02:36:53;;;;;;;8.40;7.63;;;12.20;99.90;;;;;;5109909;28;20620;-93
2021/10/02 02:39:20;;;;;;;9.17;8.37;;;12.10;99.90;;;;;;5102916;28;20576;-93
2021/10/02 02:41:46;;;;;;;7.50;6.90;;;12.20;99.90;;;;;;5109159;28;20701;-88
2021/10/02 02:44:20;;;;;;;8.50;7.80;;;12.10;99.90;;;;;;5116707;28;20633;-90
2021/10/02 02:46:54;;;;;;;9.10;8.20;;;12.20;99.90;;;;;;5104961;28;20690;-89
2021/10/02 02:49:30;;;;;;;9.50;8.80;;;12.10;99.90;;;;;;5111979;28;20661;-89
2021/10/02 02:52:01;;;;;;;9.03;8.37;;;12.10;99.90;;;;;;5111094;28;20646;-89
2021/10/02 02:54:34;;;;;;;9.03;8.27;;;12.00;99.90;;;;;;5106762;28;20631;-89
2021/10/02 02:57:11;;;;;;;9.23;8.40;;;12.00;99.90;;;;;;5109344;28;20588;-90
2021/10/02 02:59:41;;;;;;;10.30;9.50;;;12.00;99.90;;;;;;5112449;27;20631;-90
2021/10/02 03:02:15;;;;;;;9.93;9.00;;;12.00;99.90;;;;;;5106277;28;20639;-90
2021/10/02 03:04:45;;;;;;;12.57;9.97;;;12.00;99.90;;;;;;5105929;28;21049;-89
2021/10/02 03:07:21;;;;;;;9.60;8.80;;;11.90;99.90;;;;;;5106462;28;21143;-90
2021/10/02 03:09:52;;;;;;;9.50;8.70;;;12.00;99.90;;;;;;5108573;28;20630;-88
2021/10/02 03:12:22;;;;;;;9.03;8.13;;;12.00;99.90;;;;;;5112522;27;21083;-90
2021/10/02 03:14:53;;;;;;;9.70;8.80;;;12.00;99.90;;;;;;5113992;28;20764;-89
2021/10/02 03:17:22;;;;;;;10.73;9.80;;;12.00;99.90;;;;;;5107331;28;20619;-90
2021/10/02 03:19:52;;;;;;;10.07;9.17;;;12.00;99.90;;;;;;5109343;28;20646;-90
2021/10/02 03:22:21;;;;;;;10.47;9.57;;;12.00;99.90;;;;;;5112444;27;20646;-90
2021/10/02 03:24:50;;;;;;;10.83;9.83;;;12.00;99.90;;;;;;5109265;28;20636;-90
2021/10/02 03:27:17;;;;;;;9.77;8.87;;;12.10;99.90;;;;;;5112931;27;20669;-90
2021/10/02 03:29:46;;;;;;;10.27;9.27;;;12.00;99.90;;;;;;5116026;27;20616;-89
2021/10/02 03:32:13;;;;;;;9.57;8.77;;;12.00;99.90;;;;;;5108386;28;20747;-90
2021/10/02 03:34:41;;;;;;;10.00;9.20;;;12.00;99.90;;;;;;5109915;27;21048;-90
2021/10/02 03:37:11;;;;;;;10.30;9.40;;;12.00;99.90;;;;;;5109495;28;20615;-90
2021/10/02 03:39:39;;;;;;;10.17;9.23;;;12.00;99.90;;;;;;5107587;28;21177;-90
2021/10/02 03:42:12;;;;;;;10.30;9.30;;;12.00;99.90;;;;;;5109993;27;20653;-90
2021/10/02 03:44:42;;;;;;;9.20;8.40;;;12.00;99.90;;;;;;5109272;27;20631;-89
2021/10/02 03:47:12;;;;;;;10.83;9.93;;;12.00;99.90;;;;;;5105876;28;20658;-89
2021/10/02 03:49:42;;;;;;;9.70;8.90;;;11.90;99.90;;;;;;5108944;27;21169;-90
2021/10/02 03:52:12;;;;;;;9.73;8.93;;;11.90;99.90;;;;;;5114090;27;21268;-90
2021/10/02 03:54:40;;;;;;;10.13;9.23;;;11.90;99.90;;;;;;5113767;27;20631;-90
2021/10/02 03:57:08;;;;;;;11.37;10.13;;;11.90;99.90;;;;;;5111796;27;20623;-91
2021/10/02 03:59:39;;;;;;;9.23;8.43;;;11.90;99.90;;;;;;5108661;28;20630;-91
2021/10/02 04:02:16;;;;;;;9.13;8.30;;;11.90;99.90;;;;;;5115917;27;20634;-91
2021/10/02 04:04:43;;;;;;;8.63;7.83;;;11.90;99.90;;;;;;5115453;27;21006;-93
2021/10/02 04:07:21;;;;;;;8.53;7.83;;;11.90;99.90;;;;;;5110436;27;20654;-90
2021/10/02 04:09:48;;;;;;;8.87;8.27;;;11.90;99.90;;;;;;5111101;28;20697;-91
2021/10/02 04:12:16;;;;;;;11.00;9.53;;;11.90;99.90;;;;;;5119140;28;20663;-89
2021/10/02 04:14:43;;;;;;;10.93;8.23;;;12.00;99.90;;;;;;5111502;27;20630;-89
2021/10/02 04:17:12;;;;;;;8.63;7.90;;;12.00;99.90;;;;;;5107618;28;21515;-90
2021/10/02 04:19:40;;;;;;;9.67;8.77;;;11.90;99.90;;;;;;5112468;28;20632;-92
2021/10/02 04:22:07;;;;;;;9.10;8.23;;;12.00;99.90;;;;;;5113015;28;20673;-89
2021/10/02 04:24:35;;;;;;;8.60;7.70;;;12.00;99.90;;;;;;5105972;28;20629;-90
2021/10/02 04:27:02;;;;;;;9.57;8.77;;;11.90;99.90;;;;;;5111907;28;20655;-90
2021/10/02 04:29:29;;;;;;;9.53;8.03;;;12.00;99.90;;;;;;5116774;27;20630;-90
2021/10/02 04:31:59;;;;;;;10.77;8.20;;;12.00;99.90;;;;;;5116092;27;20647;-91
2021/10/02 04:34:27;;;;;;;9.57;8.77;;;12.00;99.90;;;;;;5107857;28;20642;-89
2021/10/02 04:36:54;;;;;;;8.17;7.57;;;12.00;99.90;;;;;;5107066;28;20635;-90
2021/10/02 04:39:25;;;;;;;9.43;8.63;;;12.00;99.90;;;;;;5112475;28;20658;-89
2021/10/02 04:41:54;;;;;;;8.63;7.93;;;11.90;99.90;;;;;;5111597;28;20670;-90
2021/10/02 04:44:21;;;;;;;10.87;9.97;;;12.00;99.90;;;;;;5104693;27;20615;-89
2021/10/02 04:46:50;;;;;;;8.40;7.70;;;12.00;99.90;;;;;;5113254;27;20679;-90
2021/10/02 04:49:17;;;;;;;9.50;8.80;;;12.00;99.90;;;;;;5107060;28;21184;-89
2021/10/02 04:51:45;;;;;;;8.33;7.50;;;11.90;99.90;;;;;;5115904;27;20666;-90
2021/10/02 04:54:13;;;;;;;9.17;8.37;;;11.90;99.90;;;;;;5108310;28;20653;-90
2021/10/02 04:56:40;;;;;;;9.37;8.47;;;11.90;99.90;;;;;;5106428;28;20653;-90
2021/10/02 04:59:13;;;;;;;9.23;8.53;;;11.90;99.90;;;;;;5110637;27;20621;-90
2021/10/02 05:01:41;;;;;;;8.20;7.50;;;11.90;99.90;;;;;;5107165;28;20673;-90
2021/10/02 05:04:08;;;;;;;8.03;7.33;;;11.90;99.90;;;;;;5109041;28;20614;-90
2021/10/02 05:06:35;;;;;;;9.43;8.63;;;11.90;99.90;;;;;;5103822;28;20659;-91
2021/10/02 05:09:02;;;;;;;10.70;9.80;;;11.90;99.90;;;;;;5109378;28;21171;-90
2021/10/02 05:11:31;;;;;;;10.20;9.33;;;11.90;99.90;;;;;;5113725;27;20642;-90
2021/10/02 05:13:58;;;;;;;10.63;9.13;;;12.00;99.90;;;;;;5115606;27;20795;-89
2021/10/02 05:16:28;;;;;;;12.27;10.20;;;12.00;99.90;;;;;;5108286;28;20603;-89
2021/10/02 05:18:55;;;;;;;10.07;9.17;;;11.90;99.90;;;;;;5109436;28;20631;-91
2021/10/02 05:21:22;;;;;;;11.13;10.07;;;11.90;99.90;;;;;;5104338;28;20647;-89
2021/10/02 05:23:49;;;;;;;10.77;9.77;;;11.90;99.90;;;;;;5108714;28;20627;-90
2021/10/02 05:26:16;;;;;;;9.53;8.77;;;11.90;99.90;;;;;;5109071;28;20708;-91
2021/10/02 05:28:43;;;;;;;10.83;9.83;;;11.80;99.90;;;;;;5110011;27;20631;-89
2021/10/02 05:31:10;;;;;;;10.93;9.50;;;11.80;99.90;;;;;;5112279;28;20654;-89
2021/10/02 05:33:40;;;;;;;10.53;9.53;;;11.80;99.90;;;;;;5110398;28;20630;-89
2021/10/02 05:36:09;;;;;;;9.70;8.73;;;11.70;99.90;;;;;;5111054;28;20623;-88
2021/10/02 05:38:36;;;;;;;9.80;9.10;;;11.70;99.90;;;;;;5116447;27;20619;-89
2021/10/02 05:41:03;;;;;;;9.20;8.30;;;11.70;99.90;;;;;;5108669;28;20643;-91
2021/10/02 05:43:30;;;;;;;10.03;9.13;;;11.80;99.90;;;;;;5110565;28;20627;-91
2021/10/02 05:45:57;;;;;;;10.07;9.17;;;11.80;99.90;;;;;;5111328;28;20631;-88
2021/10/02 05:48:29;;;;;;;10.30;9.50;;;11.80;99.90;;;;;;5117058;28;20633;-90
2021/10/02 05:50:58;;;;;;;9.30;8.50;;;11.80;99.90;;;;;;5109647;28;20647;-89
2021/10/02 05:53:24;;;;;;;10.50;9.60;;;11.90;99.90;;;;;;5121186;27;20615;-90
2021/10/02 05:55:53;;;;;;;8.63;8.00;;;11.90;99.90;;;;;;5115919;28;20710;-91
2021/10/02 05:58:20;;;;;;;8.67;7.97;;;12.00;99.90;;;;;;5110534;28;20619;-92
2021/10/02 06:00:50;;;;;;;9.40;8.63;;;12.00;99.90;;;;;;5117782;27;20683;-89
2021/10/02 06:03:17;;;;;;;11.90;9.90;;;12.10;99.90;;;;;;5123090;27;20634;-91
2021/10/02 06:05:44;;;;;;;9.17;8.27;;;12.30;99.90;;;;;;5116317;28;21539;-91
2021/10/02 06:08:12;;;;;;;10.50;9.50;;;12.40;99.90;;;;;;5108363;28;20659;-91
2021/10/02 06:10:39;;;;;;;11.53;9.00;;;12.50;99.90;;;;;;5108833;28;20655;-90
2021/10/02 06:13:06;;;;;;;9.00;8.30;;;12.60;99.90;;;;;;5107492;28;20627;-90
2021/10/02 06:15:36;;;;;;;9.90;8.90;;;12.60;99.90;;;;;;5111741;28;20627;-91
2021/10/02 06:18:04;;;;;;;10.23;9.33;;;12.60;99.90;;;;;;5107435;28;20672;-92
2021/10/02 06:20:31;;;;;;;10.57;9.70;;;12.50;99.90;;;;;;5106776;28;20639;-90
2021/10/02 06:22:58;;;;;;;10.10;9.30;;;12.50;99.90;;;;;;5109940;28;20623;-89
2021/10/02 06:25:28;;;;;;;10.63;9.63;;;12.40;99.90;;;;;;5106567;28;20621;-90
2021/10/02 06:27:55;;;;;;;9.00;8.30;;;12.40;99.90;;;;;;5110772;28;20644;-92
2021/10/02 06:30:22;;;;;;;9.30;8.43;;;12.50;99.90;;;;;;5109756;28;20660;-93
2021/10/02 06:32:56;;;;;;;10.50;9.50;;;12.50;99.90;;;;;;5106766;28;20646;-92
2021/10/02 06:35:25;;;;;;;10.17;9.17;;;12.60;99.90;;;;;;5107041;28;20647;-89
2021/10/02 06:37:53;;;;;;;9.80;8.90;;;12.70;99.90;;;;;;5110854;28;20630;-93
2021/10/02 06:40:22;;;;;;;9.30;8.50;;;12.70;99.90;;;;;;5112720;28;20662;-92
2021/10/02 06:42:51;;;;;;;9.13;8.33;;;12.60;99.90;;;;;;5110015;28;20642;-91
2021/10/02 06:45:23;;;;;;;9.10;7.97;;;12.70;99.90;;;;;;5108696;28;20640;-91
2021/10/02 06:47:54;;;;;;;10.40;9.37;;;12.80;99.90;;;;;;5121377;27;20663;-91
2021/10/02 06:50:22;;;;;;;9.73;8.93;;;12.80;99.90;;;;;;5112776;28;20657;-91
2021/10/02 06:55:31;;;;;;;10.20;9.23;;;12.90;99.90;;;;;;5108173;27;20604;-92
2021/10/02 06:58:02;;;;;;;11.17;10.07;;;12.90;99.90;;;;;;5114402;28;20953;-91
2021/10/02 07:00:39;;;;;;;10.30;9.43;;;12.90;99.90;;;;;;5109758;27;20662;-92
2021/10/02 07:03:08;;;;;;;9.53;8.50;;;12.80;99.90;;;;;;5115619;28;20645;-93
2021/10/02 07:05:35;;;;;;;9.67;8.97;;;12.80;99.90;;;;;;5112773;27;20653;-92
2021/10/02 07:08:03;;;;;;;10.80;9.80;;;12.90;99.90;;;;;;5110024;27;20655;-90
2021/10/02 07:10:31;;;;;;;9.53;8.53;;;13.00;99.90;;;;;;5111313;28;20647;-91
2021/10/02 07:12:58;;;;;;;10.30;9.10;;;13.10;99.90;;;;;;5117178;27;20615;-91
2021/10/02 07:15:26;;;;;;;11.00;9.00;;;13.20;99.90;;;;;;5118618;28;20616;-90
2021/10/02 07:17:54;;;;;;;9.97;9.10;;;13.30;99.90;;;;;;5113627;28;20615;-90
2021/10/02 07:20:25;;;;;;;9.53;8.63;;;13.40;99.90;;;;;;5106456;28;20649;-89
2021/10/02 07:22:53;;;;;;;12.30;9.77;;;13.40;99.90;;;;;;5107317;27;20628;-89
2021/10/02 07:25:21;;;;;;;10.10;9.10;;;13.50;99.90;;;;;;5101915;28;20686;-89
2021/10/02 07:27:49;;;;;;;9.40;8.50;;;13.60;99.90;;;;;;5109835;27;20659;-90
2021/10/02 07:30:16;;;;;;;10.20;8.70;;;13.60;99.90;;;;;;5107461;27;21045;-89
2021/10/02 07:32:47;;;;;;;9.53;8.73;;;13.70;99.90;;;;;;5103305;28;20627;-89
2021/10/02 07:35:16;;;;;;;12.20;7.97;;;13.70;99.90;;;;;;5110822;27;20672;-89
2021/10/02 07:37:43;;;;;;;9.70;8.70;;;13.90;99.90;;;;;;5108077;28;20623;-89
2021/10/02 07:40:13;;;;;;;9.00;8.13;;;14.00;99.90;;;;;;5111045;28;20686;-89
2021/10/02 07:42:41;;;;;;;10.07;9.07;;;14.00;99.90;;;;;;5105697;27;21340;-88
2021/10/02 07:45:10;;;;;;;9.17;8.37;;;14.10;99.90;;;;;;5105539;28;21153;-90
2021/10/02 07:47:41;;;;;;;9.20;8.40;;;14.10;99.90;;;;;;5112124;28;20659;-90
2021/10/02 07:50:12;;;;;;;11.03;9.40;;;14.30;99.90;;;;;;5112532;28;20654;-90
2021/10/02 07:52:41;;;;;;;8.83;7.43;;;14.20;99.90;;;;;;5111363;28;20623;-89
2021/10/02 07:55:10;;;;;;;9.43;8.37;;;14.40;99.90;;;;;;5104415;28;20623;-91
2021/10/02 07:57:42;;;;;;;12.30;8.80;;;14.70;99.90;;;;;;5103153;28;20584;-89
2021/10/02 08:00:14;;;;;;;8.93;8.13;;;15.00;99.90;;;;;;5114984;27;20631;-91
2021/10/02 08:02:44;;;;;;;8.57;7.77;;;15.30;99.90;;;;;;5113401;27;20630;-91
2021/10/02 08:05:12;;;;;;;8.07;7.17;;;15.40;99.90;;;;;;5111315;28;20627;-90
2021/10/02 08:07:42;;;;;;;8.37;7.67;;;15.50;99.90;;;;;;5113290;28;20736;-91
2021/10/02 08:10:15;;;;;;;8.57;7.53;;;15.60;99.90;;;;;;5109031;28;21223;-91
2021/10/02 08:12:42;;;;;;;8.23;7.53;;;15.80;99.90;;;;;;5112666;28;20701;-90
2021/10/02 08:15:17;;;;;;;7.27;6.57;;;15.80;99.90;;;;;;5106168;28;20604;-91
2021/10/02 08:17:45;;;;;;;8.60;7.40;;;16.00;99.90;;;;;;5114588;27;20669;-90
2021/10/02 08:20:16;;;;;;;8.60;7.90;;;16.20;99.90;;;;;;5107322;28;20784;-91
2021/10/02 08:22:45;;;;;;;9.13;7.73;;;16.30;99.90;;;;;;5108342;28;20627;-91
2021/10/02 08:25:13;;;;;;;7.40;6.70;;;16.40;99.90;;;;;;5108490;27;20619;-90
2021/10/02 08:27:41;;;;;;;7.30;6.70;;;16.60;99.90;;;;;;5108076;27;21001;-89
2021/10/02 08:30:12;;;;;;;7.40;6.80;;;16.70;99.90;;;;;;5106910;27;20661;-89
2021/10/02 08:32:40;;;;;;;5.53;5.03;;;16.80;99.90;;;;;;5115736;27;20618;-90
2021/10/02 08:35:09;;;;;;;6.73;5.50;;;16.80;99.90;;;;;;5104055;27;20608;-90
2021/10/02 08:37:38;;;;;;;5.47;5.07;;;16.90;99.90;;;;;;5103478;28;20714;-90
2021/10/02 08:40:10;;;;;;;8.70;6.17;;;17.10;99.90;;;;;;5105437;28;20655;-89
2021/10/02 08:42:38;;;;;;;6.73;6.17;;;17.20;99.90;;;;;;5108812;27;20627;-89
2021/10/02 08:45:08;;;;;;;6.40;5.33;;;17.40;99.90;;;;;;5102751;28;20649;-89
2021/10/02 08:47:37;;;;;;;6.43;5.83;;;17.60;99.90;;;;;;5111320;27;20674;-89
2021/10/02 08:50:05;;;;;;;6.60;5.60;;;17.80;99.90;;;;;;5109805;27;20639;-89
2021/10/02 08:52:34;;;;;;;6.30;5.33;;;17.70;99.90;;;;;;5102723;28;20657;-89
2021/10/02 08:55:05;;;;;;;5.63;4.80;;;17.90;99.90;;;;;;5105093;28;20631;-89
2021/10/02 08:57:36;;;;;;;6.10;5.60;;;17.80;99.90;;;;;;5104574;27;20616;-90
2021/10/02 09:00:07;;;;;;;5.20;4.80;;;18.00;99.90;;;;;;5112258;27;20654;-89
2021/10/02 09:02:39;;;;;;;6.17;4.80;;;18.40;99.90;;;;;;5111540;27;20623;-89
2021/10/02 09:05:09;;;;;;;5.43;4.27;;;18.30;99.90;;;;;;5108346;28;20643;-89
2021/10/02 09:07:36;;;;;;;5.27;4.23;;;18.40;99.90;;;;;;5119946;28;21216;-89
2021/10/02 09:10:12;;;;;;;4.13;3.63;;;18.60;99.90;;;;;;5106947;28;20635;-89
2021/10/02 09:12:40;;;;;;;8.50;3.80;;;18.70;99.90;;;;;;5104253;28;20619;-88
2021/10/02 09:15:08;;;;;;;6.10;4.83;;;18.70;99.90;;;;;;5105847;27;20623;-89
2021/10/02 09:17:36;;;;;;;5.47;4.30;;;18.80;99.90;;;;;;5110894;27;20642;-89
2021/10/02 09:20:04;;;;;;;6.60;4.70;;;19.20;99.90;;;;;;5094145;27;20631;-89
2021/10/02 09:22:31;;;;;;;5.80;5.23;;;19.30;99.90;;;;;;5109472;27;20631;-88
2021/10/02 09:25:01;;;;;;;4.43;4.03;;;19.70;99.90;;;;;;5103195;27;20642;-87
2021/10/02 09:27:33;;;;;;;4.30;3.90;;;19.40;99.90;;;;;;5107764;27;20659;-88
2021/10/02 09:30:04;;;;;;;4.33;3.60;;;19.50;99.90;;;;;;5106928;27;20655;-87
2021/10/02 09:32:34;;;;;;;3.33;3.03;;;19.60;99.90;;;;;;5106718;27;21368;-87
2021/10/02 09:35:03;;;;;;;5.33;3.57;;;19.70;99.90;;;;;;5106678;28;20621;-88
2021/10/02 09:37:33;;;;;;;4.73;3.50;;;20.00;99.90;;;;;;5104443;27;20623;-87
2021/10/02 09:40:03;;;;;;;3.00;2.70;;;20.30;99.90;;;;;;5107475;28;20643;-87
2021/10/02 09:42:35;;;;;;;6.43;3.60;;;20.60;99.90;;;;;;5111408;28;20588;-88
2021/10/02 09:45:11;;;;;;;3.90;3.50;;;20.60;99.90;;;;;;5122537;27;20615;-88
2021/10/02 09:47:40;;;;;;;4.70;3.70;;;20.50;99.90;;;;;;5126554;28;20669;-88
2021/10/02 09:50:09;;;;;;;4.87;3.73;;;20.70;99.90;;;;;;5126962;28;20643;-89
2021/10/02 09:52:39;;;;;;;3.90;3.50;;;21.00;99.90;;;;;;5113324;28;20620;-87
2021/10/02 09:55:26;;;;;;;4.30;4.00;;;21.40;99.90;;;;;;5113816;28;20619;-88
2021/10/02 09:57:57;;;;;;;3.53;3.20;;;21.80;99.70;;;;;;5100504;28;20619;-88
2021/10/02 10:00:26;;;;;;;3.40;3.10;;;21.70;99.00;;;;;;5098246;28;20781;-88
2021/10/02 10:02:54;;;;;;;3.90;3.50;;;22.00;99.90;;;;;;5094681;28;20693;-88
2021/10/02 10:05:27;;;;;;;4.00;3.33;;;22.40;95.70;;;;;;5096883;27;20936;-88
2021/10/02 10:07:56;;;;;;;5.83;3.20;;;22.50;96.90;;;;;;5098784;28;20667;-88
2021/10/02 10:10:24;;;;;;;3.90;3.50;;;22.30;95.50;;;;;;5100866;28;20738;-90
2021/10/02 10:12:54;;;;;;;3.80;3.50;;;22.50;95.00;;;;;;5099073;28;21162;-88
2021/10/02 10:15:34;;;;;;;4.70;3.27;;;22.40;97.20;;;;;;5102611;28;20611;-89
2021/10/02 10:18:03;;;;;;;3.47;2.93;;;22.90;95.40;;;;;;5100576;28;20626;-88
2021/10/02 10:20:34;;;;;;;5.87;3.00;;;23.10;95.00;;;;;;5107394;28;20704;-89
2021/10/02 10:23:02;;;;;;;3.33;2.80;;;23.30;94.30;;;;;;5103465;28;20618;-88
2021/10/02 10:25:29;;;;;;;4.80;3.57;;;23.70;94.20;;;;;;5103424;28;20631;-89
2021/10/02 10:28:07;;;;;;;4.50;3.13;;;23.80;92.30;;;;;;5106811;27;20663;-89
2021/10/02 10:30:42;;;;;;;3.80;3.33;;;23.90;91.30;;;;;;5104776;28;21012;-88
2021/10/02 10:33:11;;;;;;;5.70;3.47;;;23.60;92.80;;;;;;5111447;28;20629;-89
2021/10/02 10:35:40;;;;;;;3.60;3.10;;;23.80;92.10;;;;;;5098690;27;21524;-89
2021/10/02 10:38:10;;;;;;;3.80;3.10;;;24.00;91.80;;;;;;5105399;28;20636;-88
2021/10/02 10:40:37;;;;;;;3.37;3.07;;;23.50;92.30;;;;;;5101211;27;21206;-89
2021/10/02 10:43:06;;;;;;;5.10;3.00;;;23.50;91.90;;;;;;5099240;28;20623;-88
2021/10/02 10:45:35;;;;;;;5.27;3.53;;;24.10;90.60;;;;;;5098693;27;20646;-88
2021/10/02 10:48:02;;;;;;;3.13;2.90;;;24.30;90.30;;;;;;5105388;27;21071;-88
2021/10/02 10:50:32;;;;;;;4.33;2.90;;;24.20;87.20;;;;;;5110466;27;20655;-89
2021/10/02 10:53:06;;;;;;;2.97;2.77;;;24.40;88.30;;;;;;5107954;27;20624;-90
2021/10/02 10:55:47;;;;;;;4.13;3.73;;;24.50;85.30;;;;;;5103415;28;20642;-89
2021/10/02 10:58:23;;;;;;;3.90;3.10;;;24.70;83.90;;;;;;5107266;27;20603;-88
2021/10/02 11:00:53;;;;;;;3.50;3.00;;;24.90;85.50;;;;;;5106160;28;20650;-88
2021/10/02 11:03:37;;;;;;;4.03;2.97;;;24.80;85.10;;;;;;5106903;27;20747;-89
2021/10/02 11:06:04;;;;;;;3.67;3.37;;;25.10;82.30;;;;;;5105362;27;20639;-90
2021/10/02 11:09:02;;;;;;;3.43;3.13;;;25.50;83.10;;;;;;5100835;27;20659;-89
2021/10/02 11:11:57;;;;;;;3.40;3.10;;;25.40;82.40;;;;;;5103419;28;20708;-89
2021/10/02 11:15:02;;;;;;;3.10;2.83;;;24.90;82.20;;;;;;5110564;27;20701;-89
2021/10/02 11:17:44;;;;;;;3.60;3.27;;;24.90;83.70;;;;;;5104936;27;20619;-89
2021/10/02 11:20:44;;;;;;;3.30;3.00;;;25.10;82.50;;;;;;5099152;27;20638;-89
2021/10/02 11:24:02;;;;;;;4.20;3.80;;;25.40;82.00;;;;;;5042944;28;20622;-89
2021/10/02 11:26:48;;;;;;;3.87;3.37;;;25.70;81.50;;;;;;5041734;28;20610;-89
2021/10/02 11:29:29;;;;;;;2.90;2.70;;;26.10;80.80;;;;;;5096682;27;21001;-88
2021/10/02 11:32:26;;;;;;;5.60;3.33;;;26.00;80.20;;;;;;5105512;27;21169;-89
2021/10/02 11:35:10;;;;;;;4.17;3.33;;;25.60;80.30;;;;;;5099100;28;21713;-90
2021/10/02 11:37:42;;;;;;;4.93;2.93;;;25.60;82.00;;;;;;5094261;27;20750;-89
2021/10/02 11:40:45;;;;;;;3.90;3.50;;;26.30;80.80;;;;;;5105353;27;20682;-89
2021/10/02 11:43:36;;;;;;;3.43;3.13;;;26.60;80.10;;;;;;5106079;27;20622;-88
2021/10/02 11:46:06;;;;;;;4.07;3.57;;;26.30;78.70;;;;;;5100224;27;20627;-88
2021/10/02 11:48:39;;;;;;;4.57;3.33;;;26.10;79.90;;;;;;5100046;27;20681;-88
2021/10/02 11:51:18;;;;;;;3.97;3.57;;;26.30;79.60;;;;;;5104812;27;20643;-88
2021/10/02 11:53:47;;;;;;;5.30;3.80;;;26.90;78.60;;;;;;5098626;28;20634;-90
2021/10/02 11:56:19;;;;;;;3.57;3.27;;;27.80;76.00;;;;;;5101879;27;20623;-90
2021/10/02 11:58:47;;;;;;;4.17;3.77;;;27.80;75.50;;;;;;5101708;28;20631;-89
2021/10/02 12:01:19;;;;;;;3.50;3.20;;;28.20;74.40;;;;;;5100014;27;20659;-88
2021/10/02 12:03:49;;;;;;;4.33;4.00;;;28.10;73.80;;;;;;5097137;27;20628;-90
2021/10/02 12:06:20;;;;;;;3.90;3.50;;;28.50;72.70;;;;;;5104453;27;20638;-90
2021/10/02 12:08:49;;;;;;;3.80;3.50;;;27.40;73.70;;;;;;5109612;27;20661;-90
2021/10/02 12:11:16;;;;;;;4.23;3.83;;;27.80;73.20;;;;;;5107077;27;20615;-88
2021/10/02 12:13:46;;;;;;;4.50;4.03;;;28.00;71.80;;;;;;5102372;27;20845;-90
2021/10/02 12:16:16;;;;;;;5.40;3.80;;;28.00;71.20;;;;;;5101717;28;22471;-90
2021/10/02 12:18:56;;;;;;;3.70;3.40;;;28.60;70.90;;;;;;5098127;27;20921;-90
2021/10/02 12:21:39;;;;;;;5.50;3.70;;;28.40;70.70;;;;;;5101254;28;20627;-90
2021/10/02 12:24:13;;;;;;;4.10;3.80;;;28.20;71.30;;;;;;5102434;28;20627;-89
2021/10/02 12:26:44;;;;;;;5.33;3.93;;;28.30;70.20;;;;;;5102889;27;21204;-90
2021/10/02 12:29:13;;;;;;;3.37;3.10;;;28.40;69.60;;;;;;5103087;28;20682;-90
2021/10/02 12:31:50;;;;;;;4.53;3.70;;;28.80;67.70;;;;;;5109046;27;21107;-91
2021/10/02 12:34:21;;;;;;;4.27;3.73;;;29.50;67.60;;;;;;5110609;27;20644;-94
2021/10/02 12:36:52;;;;;;;3.93;3.63;;;29.00;66.50;;;;;;5109575;27;20611;-92
2021/10/02 12:39:25;;;;;;;3.70;3.40;;;29.20;65.80;;;;;;5110038;27;21038;-92
2021/10/02 12:41:53;;;;;;;3.70;3.30;;;28.80;66.90;;;;;;5101772;28;20685;-91
2021/10/02 12:44:23;;;;;;;4.63;3.20;;;28.70;64.40;;;;;;5108584;27;21278;-92
2021/10/02 12:46:51;;;;;;;6.63;3.40;;;28.40;65.50;;;;;;5107328;27;20733;-92
2021/10/02 12:49:21;;;;;;;3.17;2.97;;;28.40;66.70;;;;;;5102274;28;21066;-92
2021/10/02 12:51:50;;;;;;;4.37;3.97;;;28.20;67.20;;;;;;5114267;27;20682;-92
2021/10/02 12:54:23;;;;;;;5.17;3.90;;;27.80;68.50;;;;;;5108788;27;20614;-91
2021/10/02 12:57:03;;;;;;;4.23;3.07;;;27.40;69.10;;;;;;5113612;27;21055;-91
2021/10/02 12:59:57;;;;;;;4.10;3.60;;;26.80;70.20;;;;;;5104840;27;20594;-92
2021/10/02 13:02:24;;;;;;;3.37;3.10;;;27.30;68.90;;;;;;5104605;27;20667;-91
2021/10/02 13:04:52;;;;;;;3.93;3.07;;;27.60;69.40;;;;;;5115004;27;20654;-90
2021/10/02 13:07:34;;;;;;;3.60;3.30;;;28.20;67.70;;;;;;5105521;28;20638;-92
2021/10/02 13:10:05;;;;;;;4.13;3.73;;;28.40;67.50;;;;;;5109196;28;20825;-92
2021/10/02 13:12:37;;;;;;;3.37;3.07;;;28.40;67.10;;;;;;5099569;27;20701;-90
2021/10/02 13:15:07;;;;;;;6.00;3.70;;;28.30;67.20;;;;;;5100326;27;20654;-91
2021/10/02 13:17:36;;;;;;;5.00;3.93;;;28.00;66.10;;;;;;5102888;27;20726;-92
2021/10/02 13:23:07;;;;;;;3.67;3.37;;;27.80;68.00;;;;;;5134997;27;21122;-92
2021/10/02 13:25:39;;;;;;;3.73;3.40;;;28.10;67.00;;;;;;5118288;27;20622;-91
2021/10/02 13:28:18;;;;;;;3.67;3.47;;;28.60;65.00;;;;;;5122309;27;20623;-92
2021/10/02 13:30:45;;;;;;;5.57;3.70;;;29.20;65.50;;;;;;5127492;27;20689;-92
2021/10/02 13:33:15;;;;;;;5.00;3.60;;;29.70;64.40;;;;;;5120040;28;20634;-92
2021/10/02 13:35:48;;;;;;;3.80;3.50;;;29.70;63.30;;;;;;5118955;27;20709;-94
2021/10/02 13:38:31;;;;;;;3.53;3.20;;;29.50;63.20;;;;;;5125455;28;20621;-94
2021/10/02 13:41:02;;;;;;;3.60;3.30;;;29.80;62.40;;;;;;5126423;27;21357;-93
2021/10/02 13:43:29;;;;;;;3.90;3.60;;;29.80;61.80;;;;;;5122439;27;20626;-93
2021/10/02 13:45:57;;;;;;;4.30;3.50;;;30.10;60.30;;;;;;5121550;28;20622;-92
2021/10/02 13:48:26;;;;;;;3.57;3.23;;;30.20;60.60;;;;;;5124231;27;20656;-94
2021/10/02 13:50:55;;;;;;;3.13;2.93;;;29.10;60.70;;;;;;5112676;27;20678;-93
2021/10/02 13:53:29;;;;;;;4.37;3.77;;;29.80;60.40;;;;;;5122170;27;20622;-94
2021/10/02 13:55:56;;;;;;;3.53;3.23;;;30.00;61.90;;;;;;5115514;28;20638;-92
2021/10/02 13:58:23;;;;;;;3.60;3.30;;;29.70;60.10;;;;;;5115471;28;20599;-92
2021/10/02 14:00:51;;;;;;;3.70;3.40;;;29.70;59.60;;;;;;5099011;28;20619;-92
2021/10/02 14:03:25;;;;;;;3.73;3.43;;;30.00;59.90;;;;;;5122385;28;21182;-91